Time;durP1;ratioP1;P1;durP2;ratioP2;P2;SDS_P1;SDS_P2;PMS_P1;PMS_P2;Temp;Humidity;BMP_temperature;BMP_pressure;BME280_temperature;BME280_humidity;BME280_pressure;Samples;Min_cycle;Max_cycle;Signal;HPM_P1;HPM_P2
2021/12/15 00:02:18;;;;;;;10.38;4.60;;;8.60;99.90;;;;;;5077422;28;20492;-66
2021/12/15 00:04:45;;;;;;;16.27;6.13;;;8.70;99.90;;;;;;5068078;28;20387;-64
2021/12/15 00:07:11;;;;;;;20.23;6.07;;;8.70;99.90;;;;;;5069757;28;20029;-64
2021/12/15 00:09:38;;;;;;;21.00;7.07;;;8.70;99.90;;;;;;5074082;28;20024;-64
2021/12/15 00:12:05;;;;;;;17.17;5.90;;;8.70;99.90;;;;;;5075613;28;20075;-64
2021/12/15 00:14:33;;;;;;;24.77;6.32;;;8.70;99.90;;;;;;5069730;28;20032;-64
2021/12/15 00:16:59;;;;;;;16.75;3.95;;;8.70;99.90;;;;;;5072265;28;20489;-64
2021/12/15 00:19:27;;;;;;;18.85;6.70;;;8.70;99.90;;;;;;5071194;28;20055;-64
2021/12/15 00:21:53;;;;;;;16.35;6.90;;;8.70;99.90;;;;;;5076939;28;20036;-64
2021/12/15 00:24:19;;;;;;;30.40;7.32;;;8.70;99.90;;;;;;5078338;28;20031;-64
2021/12/15 00:26:44;;;;;;;8.48;3.20;;;8.60;99.90;;;;;;5080143;28;20024;-64
2021/12/15 00:29:10;;;;;;;13.43;5.57;;;8.60;99.90;;;;;;5069675;28;20715;-64
2021/12/15 00:31:37;;;;;;;20.95;6.32;;;8.70;99.90;;;;;;5073680;28;20066;-64
2021/12/15 00:34:07;;;;;;;20.65;7.10;;;8.70;99.90;;;;;;5072836;28;20020;-64
2021/12/15 00:36:33;;;;;;;11.57;4.83;;;8.70;99.90;;;;;;5071134;28;20502;-64
2021/12/15 00:38:58;;;;;;;15.80;6.65;;;8.60;99.90;;;;;;5067232;28;20793;-64
2021/12/15 00:41:24;;;;;;;14.95;5.53;;;8.60;99.90;;;;;;5070753;28;20044;-64
2021/12/15 00:43:50;;;;;;;14.15;5.72;;;8.70;99.90;;;;;;5072229;28;20122;-64
2021/12/15 00:46:16;;;;;;;14.50;4.85;;;8.70;99.90;;;;;;5069409;28;20059;-64
2021/12/15 00:48:42;;;;;;;16.90;6.95;;;8.70;99.90;;;;;;5068647;28;20536;-64
2021/12/15 00:51:08;;;;;;;13.23;5.35;;;8.70;99.90;;;;;;5076306;28;20058;-64
2021/12/15 00:53:33;;;;;;;21.92;6.25;;;8.70;99.90;;;;;;5079278;28;20103;-64
2021/12/15 00:55:59;;;;;;;16.95;7.07;;;8.70;99.90;;;;;;5068467;28;20111;-64
2021/12/15 00:58:31;;;;;;;15.10;5.07;;;8.70;99.90;;;;;;5076092;28;20047;-64
2021/12/15 01:01:01;;;;;;;14.20;5.65;;;8.70;99.90;;;;;;5072345;28;20044;-64
2021/12/15 01:03:29;;;;;;;13.05;4.85;;;8.70;99.90;;;;;;5072766;28;20029;-64
2021/12/15 01:06:04;;;;;;;16.95;5.07;;;8.70;99.90;;;;;;5072034;28;20105;-64
2021/12/15 01:08:31;;;;;;;18.88;6.85;;;8.70;99.90;;;;;;5069875;28;20055;-64
2021/12/15 01:11:13;;;;;;;13.35;5.72;;;8.60;99.90;;;;;;5074720;28;20574;-64
2021/12/15 01:22:04;;;;;;;22.13;6.50;;;8.60;99.90;;;;;;5070482;28;20035;-64
2021/12/15 01:24:31;;;;;;;8.60;3.45;;;8.60;99.90;;;;;;5071638;28;20032;-64
2021/12/15 01:26:57;;;;;;;13.05;4.88;;;8.60;99.90;;;;;;5078090;28;20040;-64
2021/12/15 01:29:23;;;;;;;17.00;5.47;;;8.60;99.90;;;;;;5073311;28;20032;-64
2021/12/15 01:31:49;;;;;;;12.35;4.28;;;8.60;99.90;;;;;;5067267;28;20560;-64
2021/12/15 01:34:14;;;;;;;13.82;4.95;;;8.60;99.90;;;;;;5080389;28;20032;-64
2021/12/15 01:36:40;;;;;;;8.40;4.32;;;8.60;99.90;;;;;;5072810;28;20036;-64
2021/12/15 01:39:06;;;;;;;14.95;5.38;;;8.60;99.90;;;;;;5066341;28;20074;-64
2021/12/15 01:41:32;;;;;;;20.83;6.05;;;8.60;99.90;;;;;;5070623;28;20632;-64
2021/12/15 01:46:56;;;;;;;12.50;5.07;;;8.50;99.90;;;;;;5070094;28;20036;-65
2021/12/15 01:49:45;;;;;;;11.90;5.63;;;8.50;99.90;;;;;;5071965;28;20028;-65
2021/12/15 01:52:20;;;;;;;11.98;4.43;;;8.50;99.90;;;;;;5077866;28;20026;-65
2021/12/15 01:54:51;;;;;;;32.70;4.82;;;8.60;99.90;;;;;;5068800;28;20028;-64
2021/12/15 01:57:18;;;;;;;16.95;5.05;;;8.60;99.90;;;;;;5074606;28;20504;-65
2021/12/15 01:59:46;;;;;;;18.30;5.60;;;8.60;99.90;;;;;;5074218;28;20032;-64
2021/12/15 02:02:14;;;;;;;16.42;5.03;;;8.60;99.90;;;;;;5070108;28;20024;-64
2021/12/15 02:04:40;;;;;;;12.82;4.95;;;8.50;99.90;;;;;;5076031;28;20024;-64
2021/12/15 02:07:08;;;;;;;13.95;5.60;;;8.50;99.90;;;;;;5067409;28;20028;-65
2021/12/15 02:10:01;;;;;;;16.27;4.82;;;8.50;99.90;;;;;;5068415;28;20031;-65
2021/12/15 02:12:29;;;;;;;9.65;4.45;;;8.50;99.90;;;;;;5069225;28;20037;-64
2021/12/15 02:14:55;;;;;;;14.73;5.05;;;8.60;99.90;;;;;;5070170;28;20040;-64
2021/12/15 02:17:22;;;;;;;11.65;4.35;;;8.60;99.90;;;;;;5074879;28;20047;-65
2021/12/15 02:19:48;;;;;;;16.50;5.50;;;8.60;99.90;;;;;;5073269;28;20531;-65
2021/12/15 02:22:14;;;;;;;9.50;3.60;;;8.60;99.90;;;;;;5068240;28;20029;-64
2021/12/15 02:24:42;;;;;;;15.85;4.57;;;8.70;99.90;;;;;;5068773;28;20036;-64
2021/12/15 02:27:11;;;;;;;13.35;3.95;;;8.70;99.90;;;;;;5075726;28;20016;-65
2021/12/15 02:29:41;;;;;;;17.38;4.90;;;8.70;99.90;;;;;;5069988;28;20024;-65
2021/12/15 02:32:38;;;;;;;9.02;4.00;;;8.70;99.90;;;;;;5068289;28;20374;-64
2021/12/15 02:37:05;;;;;;;10.88;5.13;;;8.70;99.90;;;;;;5072389;28;20071;-65
2021/12/15 02:37:42;;;;;;;6.55;3.15;;;8.80;99.90;;;;;;5076453;28;20504;-65
2021/12/15 02:40:12;;;;;;;15.95;5.78;;;8.80;99.90;;;;;;5075591;28;20020;-65
2021/12/15 02:42:45;;;;;;;13.05;5.65;;;8.70;99.90;;;;;;5073112;28;20533;-65
2021/12/15 02:45:13;;;;;;;16.48;5.20;;;8.70;99.90;;;;;;5077259;28;20028;-65
2021/12/15 02:47:39;;;;;;;13.23;4.13;;;8.60;99.90;;;;;;5071293;28;20020;-65
2021/12/15 02:50:08;;;;;;;14.05;4.38;;;8.60;99.90;;;;;;5068447;28;20111;-65
2021/12/15 02:52:35;;;;;;;10.77;4.85;;;8.60;99.90;;;;;;5084471;28;20090;-65
2021/12/15 02:55:02;;;;;;;15.80;5.97;;;8.60;99.90;;;;;;5075828;28;20024;-65
2021/12/15 02:57:28;;;;;;;14.93;5.05;;;8.60;99.90;;;;;;5073488;28;20032;-64
2021/12/15 03:00:05;;;;;;;18.70;6.55;;;8.60;99.90;;;;;;5075660;28;20407;-65
2021/12/15 03:05:14;;;;;;;13.63;4.78;;;8.60;99.90;;;;;;5069533;28;20032;-65
2021/12/15 03:15:37;;;;;;;14.02;4.47;;;8.60;99.90;;;;;;5067722;28;20466;-64
2021/12/15 03:18:14;;;;;;;12.63;4.63;;;8.60;99.90;;;;;;5065280;28;20053;-64
2021/12/15 03:20:57;;;;;;;10.90;2.85;;;8.70;99.90;;;;;;5078909;28;20043;-64
2021/12/15 03:23:30;;;;;;;14.15;4.53;;;8.70;99.90;;;;;;5074805;28;20070;-64
2021/12/15 03:25:57;;;;;;;12.57;5.35;;;8.70;99.90;;;;;;5072470;28;20499;-64
2021/12/15 03:34:08;;;;;;;10.38;4.30;;;8.70;99.90;;;;;;5067674;28;20107;-64
2021/12/15 03:39:24;;;;;;;11.50;4.97;;;8.70;99.90;;;;;;5083740;28;20028;-65
2021/12/15 03:41:57;;;;;;;16.27;4.32;;;8.70;99.90;;;;;;5074755;28;20020;-64
2021/12/15 03:44:24;;;;;;;17.58;6.38;;;8.70;99.90;;;;;;5074523;28;20028;-65
2021/12/15 03:46:50;;;;;;;10.68;4.38;;;8.60;99.90;;;;;;5072736;28;20032;-65
2021/12/15 03:49:16;;;;;;;12.63;4.03;;;8.60;99.90;;;;;;5068920;28;20024;-64
2021/12/15 03:51:42;;;;;;;12.35;5.50;;;8.60;99.90;;;;;;5068638;28;20547;-65
2021/12/15 03:54:08;;;;;;;11.45;4.50;;;8.70;99.90;;;;;;5077564;28;20032;-64
2021/12/15 03:56:36;;;;;;;10.93;4.95;;;8.60;99.90;;;;;;5072177;28;20391;-64
2021/12/15 03:59:03;;;;;;;20.88;5.85;;;8.70;99.90;;;;;;5073484;28;20025;-64
2021/12/15 04:01:29;;;;;;;16.17;5.05;;;8.70;99.90;;;;;;5072005;28;20078;-65
2021/12/15 04:03:55;;;;;;;15.20;5.05;;;8.70;99.90;;;;;;5073612;28;20032;-64
2021/12/15 04:06:28;;;;;;;7.75;2.92;;;8.70;99.90;;;;;;5074228;28;20024;-64
2021/12/15 04:08:55;;;;;;;8.32;3.40;;;8.70;99.90;;;;;;5069413;28;20056;-64
2021/12/15 04:11:22;;;;;;;9.85;5.00;;;8.70;99.90;;;;;;5072352;28;20396;-64
2021/12/15 04:13:49;;;;;;;10.20;4.47;;;8.70;99.90;;;;;;5073020;28;20028;-64
2021/12/15 04:16:43;;;;;;;11.40;4.30;;;8.70;99.90;;;;;;5072133;28;20025;-64
2021/12/15 04:19:06;;;;;;;14.25;5.20;;;8.70;99.90;;;;;;5070675;28;20097;-65
2021/12/15 04:21:32;;;;;;;11.75;4.60;;;8.70;99.90;;;;;;5066310;28;20480;-64
2021/12/15 04:23:59;;;;;;;9.32;3.95;;;8.70;99.90;;;;;;5073947;28;20021;-65
2021/12/15 04:26:25;;;;;;;17.02;4.75;;;8.60;99.90;;;;;;5069230;28;20029;-64
2021/12/15 04:28:51;;;;;;;11.15;4.90;;;8.70;99.90;;;;;;5070271;28;20075;-65
2021/12/15 04:31:22;;;;;;;14.27;5.40;;;8.70;99.90;;;;;;5071768;28;20062;-65
2021/12/15 04:33:59;;;;;;;11.00;4.20;;;8.70;99.90;;;;;;5068594;28;20036;-65
2021/12/15 04:36:28;;;;;;;14.82;4.20;;;8.70;99.90;;;;;;5072092;28;20073;-65
2021/12/15 04:38:57;;;;;;;12.80;5.43;;;8.70;99.90;;;;;;5075490;28;20032;-65
2021/12/15 04:41:23;;;;;;;12.35;4.18;;;8.70;99.90;;;;;;5080557;28;20526;-64
2021/12/15 04:43:57;;;;;;;13.88;4.45;;;8.70;99.90;;;;;;5075408;28;20027;-64
2021/12/15 04:46:25;;;;;;;12.60;4.55;;;8.70;99.90;;;;;;5074566;28;20028;-65
2021/12/15 04:48:51;;;;;;;11.30;4.53;;;8.70;99.90;;;;;;5074399;28;20042;-65
2021/12/15 04:51:18;;;;;;;8.95;4.13;;;8.70;99.90;;;;;;5072923;28;20017;-65
2021/12/15 04:53:44;;;;;;;13.43;4.60;;;8.70;99.90;;;;;;5080462;28;20056;-64
2021/12/15 04:56:10;;;;;;;11.38;4.53;;;8.80;99.90;;;;;;5066661;28;20035;-64
2021/12/15 04:58:36;;;;;;;8.95;3.45;;;8.70;99.90;;;;;;5068998;28;20024;-64
2021/12/15 05:01:05;;;;;;;10.65;4.28;;;8.60;99.90;;;;;;5070097;28;20035;-64
2021/12/15 05:03:31;;;;;;;12.63;3.28;;;8.70;99.90;;;;;;5067471;28;20023;-64
2021/12/15 05:05:57;;;;;;;11.48;4.10;;;8.70;99.90;;;;;;5070705;28;20013;-64
2021/12/15 05:08:23;;;;;;;10.60;3.85;;;8.70;99.90;;;;;;5078169;28;20024;-64
2021/12/15 05:10:50;;;;;;;10.20;4.13;;;8.70;99.90;;;;;;5077053;28;20032;-64
2021/12/15 05:13:16;;;;;;;10.93;3.50;;;8.70;99.90;;;;;;5070058;28;20059;-65
2021/12/15 05:15:42;;;;;;;9.32;4.22;;;8.70;99.90;;;;;;5076474;28;20029;-65
2021/12/15 05:18:09;;;;;;;12.35;4.22;;;8.70;99.90;;;;;;5077727;28;20071;-65
2021/12/15 05:20:38;;;;;;;7.10;2.55;;;8.70;99.90;;;;;;5075234;28;20391;-65
2021/12/15 05:23:04;;;;;;;10.63;3.38;;;8.70;99.90;;;;;;5074364;28;20360;-65
2021/12/15 05:25:31;;;;;;;8.75;3.90;;;8.60;99.90;;;;;;5072983;28;20063;-65
2021/12/15 05:27:57;;;;;;;10.38;3.60;;;8.60;99.90;;;;;;5072808;28;20074;-64
2021/12/15 05:30:23;;;;;;;10.50;3.13;;;8.50;99.90;;;;;;5080238;28;20029;-64
2021/12/15 05:32:49;;;;;;;7.88;2.90;;;8.60;99.90;;;;;;5077073;28;20020;-64
2021/12/15 05:35:21;;;;;;;17.00;3.22;;;8.60;99.90;;;;;;5077684;28;20063;-65
2021/12/15 05:37:49;;;;;;;10.40;3.45;;;8.60;99.90;;;;;;5072338;28;20469;-64
2021/12/15 05:40:15;;;;;;;8.13;2.90;;;8.70;99.90;;;;;;5075842;28;20036;-64
2021/12/15 05:42:41;;;;;;;6.55;2.92;;;8.60;99.90;;;;;;5076470;28;20484;-65
2021/12/15 05:45:08;;;;;;;7.82;3.17;;;8.70;99.90;;;;;;5071087;28;20357;-65
2021/12/15 05:47:34;;;;;;;7.47;2.90;;;8.70;99.90;;;;;;5079265;28;20062;-65
2021/12/15 05:50:00;;;;;;;10.40;2.45;;;8.70;99.90;;;;;;5082783;28;20027;-65
2021/12/15 05:52:29;;;;;;;6.88;3.08;;;8.70;99.90;;;;;;5078572;28;20483;-65
2021/12/15 05:54:55;;;;;;;12.23;3.38;;;8.70;99.90;;;;;;5072564;28;20501;-65
2021/12/15 05:57:21;;;;;;;7.43;3.05;;;8.70;99.90;;;;;;5072876;28;20029;-65
2021/12/15 05:59:47;;;;;;;10.73;3.80;;;8.70;99.90;;;;;;5074856;28;20017;-65
2021/12/15 06:02:12;;;;;;;8.85;2.33;;;8.80;99.90;;;;;;5071930;28;20050;-65
2021/12/15 06:04:38;;;;;;;13.52;3.00;;;8.80;99.90;;;;;;5083528;28;20464;-65
2021/12/15 06:07:05;;;;;;;9.10;3.88;;;8.80;99.90;;;;;;5069324;28;20418;-65
2021/12/15 06:09:31;;;;;;;6.05;2.70;;;8.80;99.90;;;;;;5065525;28;20479;-65
2021/12/15 06:11:58;;;;;;;7.53;2.60;;;8.80;99.90;;;;;;5069033;28;20032;-66
2021/12/15 06:14:27;;;;;;;10.18;3.05;;;8.80;99.90;;;;;;5069001;28;20029;-65
2021/12/15 06:17:04;;;;;;;11.90;2.97;;;8.80;99.90;;;;;;5066815;28;20035;-65
2021/12/15 06:19:30;;;;;;;8.95;2.78;;;8.80;99.90;;;;;;5063951;28;20400;-65
2021/12/15 06:21:56;;;;;;;8.73;3.15;;;8.80;99.90;;;;;;5067255;28;20016;-65
2021/12/15 06:24:22;;;;;;;10.77;4.03;;;8.80;99.90;;;;;;5065992;28;20025;-65
2021/12/15 06:26:49;;;;;;;9.25;3.75;;;8.80;99.90;;;;;;5073264;28;20499;-65
2021/12/15 06:29:15;;;;;;;10.85;3.05;;;8.80;99.90;;;;;;5073845;28;20134;-65
2021/12/15 06:31:41;;;;;;;11.15;4.03;;;8.80;99.90;;;;;;5069787;28;20467;-65
2021/12/15 06:34:06;;;;;;;16.10;4.93;;;8.80;99.90;;;;;;5078813;28;20030;-65
2021/12/15 06:36:33;;;;;;;6.47;2.53;;;8.80;99.90;;;;;;5073355;28;20024;-65
2021/12/15 06:39:00;;;;;;;11.57;4.07;;;8.70;99.90;;;;;;5076744;28;20379;-64
2021/12/15 06:41:26;;;;;;;10.43;3.70;;;8.70;99.90;;;;;;5067852;28;20514;-64
2021/12/15 06:43:58;;;;;;;8.25;3.55;;;8.70;99.90;;;;;;5063259;28;20048;-64
2021/12/15 06:58:11;;;;;;;11.05;3.83;;;8.70;99.90;;;;;;5068060;28;20077;-64
2021/12/15 07:00:22;;;;;;;10.93;4.00;;;8.70;99.90;;;;;;5069314;28;20503;-64
2021/12/15 07:02:48;;;;;;;10.70;3.40;;;8.70;99.90;;;;;;5066644;28;20039;-64
2021/12/15 07:05:15;;;;;;;12.48;4.45;;;8.70;99.90;;;;;;5073382;28;20175;-64
2021/12/15 07:07:43;;;;;;;10.50;4.50;;;8.70;99.90;;;;;;5070993;28;20484;-64
2021/12/15 07:10:13;;;;;;;10.73;4.35;;;8.70;99.90;;;;;;5067224;28;20431;-64
2021/12/15 07:12:39;;;;;;;13.80;4.10;;;8.70;99.90;;;;;;5066206;28;20029;-64
2021/12/15 07:15:06;;;;;;;10.88;3.25;;;8.70;99.90;;;;;;5069145;28;20395;-64
2021/12/15 07:17:32;;;;;;;11.82;2.97;;;8.70;99.90;;;;;;5076196;28;20028;-65
2021/12/15 07:22:34;;;;;;;8.70;2.95;;;8.70;99.90;;;;;;5071185;28;20268;-63
2021/12/15 07:25:02;;;;;;;12.23;4.03;;;8.70;99.90;;;;;;5063309;28;20027;-63
2021/12/15 07:27:28;;;;;;;10.48;3.75;;;8.70;99.90;;;;;;5064912;28;20021;-64
2021/12/15 07:29:54;;;;;;;14.50;3.05;;;8.70;99.90;;;;;;5062446;28;20035;-64
2021/12/15 07:32:19;;;;;;;10.32;3.10;;;8.80;99.90;;;;;;5062047;28;20025;-63
2021/12/15 07:34:45;;;;;;;9.30;3.00;;;8.70;99.90;;;;;;5065805;28;20111;-64
2021/12/15 07:37:11;;;;;;;13.00;3.63;;;8.70;99.90;;;;;;5068584;28;20029;-63
2021/12/15 07:39:37;;;;;;;10.93;3.88;;;8.70;99.90;;;;;;5064605;28;20545;-64
2021/12/15 07:42:07;;;;;;;7.82;2.85;;;8.70;99.90;;;;;;5073753;28;20048;-64
2021/12/15 07:44:33;;;;;;;9.63;3.35;;;8.70;99.90;;;;;;5078594;28;20188;-63
2021/12/15 07:47:00;;;;;;;8.70;3.55;;;8.70;99.90;;;;;;5076284;28;20024;-63
2021/12/15 07:49:27;;;;;;;10.50;3.72;;;8.80;99.90;;;;;;5070404;28;20032;-63
2021/12/15 07:52:00;;;;;;;8.32;2.88;;;8.80;99.90;;;;;;5071518;28;20028;-63
2021/12/15 07:54:30;;;;;;;8.93;3.53;;;8.80;99.90;;;;;;5063156;28;20036;-63
2021/12/15 07:56:56;;;;;;;7.82;3.17;;;8.70;99.90;;;;;;5056486;28;20056;-63
2021/12/15 07:59:22;;;;;;;11.90;3.65;;;8.80;99.90;;;;;;5065895;28;20038;-64
2021/12/15 08:01:48;;;;;;;5.95;2.78;;;8.80;99.90;;;;;;5067531;28;20029;-63
2021/12/15 08:04:13;;;;;;;7.95;2.30;;;8.80;99.90;;;;;;5071730;28;20090;-63
2021/12/15 08:06:39;;;;;;;12.10;3.38;;;8.80;99.90;;;;;;5065936;28;20054;-64
2021/12/15 08:09:06;;;;;;;11.90;3.35;;;8.70;99.90;;;;;;5072510;28;20040;-64
2021/12/15 08:11:32;;;;;;;9.43;2.78;;;8.80;99.90;;;;;;5066951;28;20051;-64
2021/12/15 08:13:57;;;;;;;7.28;3.10;;;8.80;99.90;;;;;;5067587;28;20500;-64
2021/12/15 08:16:26;;;;;;;7.97;2.75;;;8.80;99.90;;;;;;5064269;28;20067;-64
2021/12/15 08:18:52;;;;;;;7.43;2.72;;;8.80;99.90;;;;;;5074882;28;20049;-64
2021/12/15 08:21:18;;;;;;;6.80;2.55;;;8.80;99.90;;;;;;5063320;28;20050;-64
2021/12/15 08:23:43;;;;;;;8.77;3.08;;;8.90;99.90;;;;;;5072169;28;20028;-64
2021/12/15 08:26:10;;;;;;;3.85;1.63;;;8.90;99.90;;;;;;5066523;28;20052;-64
2021/12/15 08:28:37;;;;;;;7.22;2.75;;;8.90;99.90;;;;;;5076549;28;20031;-65
2021/12/15 08:31:04;;;;;;;9.27;2.47;;;8.90;99.90;;;;;;5078071;28;20065;-65
2021/12/15 08:33:30;;;;;;;5.78;2.28;;;8.90;99.90;;;;;;5076370;28;20035;-65
2021/12/15 08:35:59;;;;;;;9.35;3.00;;;8.90;99.90;;;;;;5073917;28;20017;-63
2021/12/15 08:38:32;;;;;;;10.13;3.35;;;8.90;99.90;;;;;;5077397;28;20074;-63
2021/12/15 08:40:59;;;;;;;8.18;1.80;;;8.90;99.90;;;;;;5079306;28;20020;-63
2021/12/15 08:43:25;;;;;;;7.15;2.08;;;8.90;99.90;;;;;;5073227;28;20174;-63
2021/12/15 08:45:57;;;;;;;8.68;3.30;;;8.90;99.90;;;;;;5074621;28;20036;-63
2021/12/15 08:48:23;;;;;;;9.30;2.72;;;8.90;99.90;;;;;;5074557;28;20088;-63
2021/12/15 08:50:50;;;;;;;6.85;2.85;;;8.90;99.90;;;;;;5072225;28;20688;-64
2021/12/15 08:53:16;;;;;;;7.40;2.53;;;9.00;99.90;;;;;;5071597;28;20111;-64
2021/12/15 08:55:46;;;;;;;10.25;3.40;;;9.00;99.90;;;;;;5072455;28;20100;-64
2021/12/15 08:58:13;;;;;;;10.20;3.08;;;9.00;99.90;;;;;;5070799;28;20069;-64
2021/12/15 09:00:42;;;;;;;6.70;2.53;;;9.00;99.90;;;;;;5073688;28;20051;-64
2021/12/15 09:03:08;;;;;;;6.43;2.50;;;9.00;99.90;;;;;;5072606;28;20078;-64
2021/12/15 09:05:35;;;;;;;6.03;2.03;;;9.10;99.90;;;;;;5070457;28;20654;-64
2021/12/15 09:08:01;;;;;;;5.50;1.95;;;9.10;99.90;;;;;;5071411;28;20016;-64
2021/12/15 09:10:30;;;;;;;7.43;3.15;;;9.00;99.90;;;;;;5069257;28;20032;-64
2021/12/15 09:12:57;;;;;;;8.75;2.90;;;9.00;99.90;;;;;;5071756;28;20099;-64
2021/12/15 09:15:23;;;;;;;8.52;2.35;;;9.10;99.90;;;;;;5072142;28;20130;-64
2021/12/15 09:17:49;;;;;;;9.85;3.72;;;9.10;99.90;;;;;;5070455;28;20048;-64
2021/12/15 09:20:20;;;;;;;8.05;2.85;;;9.10;99.90;;;;;;5070572;28;20408;-64
2021/12/15 09:22:46;;;;;;;7.60;3.08;;;9.10;99.90;;;;;;5072005;28;20342;-64
2021/12/15 09:25:13;;;;;;;8.25;2.92;;;9.10;99.90;;;;;;5072363;28;20055;-64
2021/12/15 09:27:41;;;;;;;9.32;3.28;;;9.10;99.90;;;;;;5070105;28;20031;-64
2021/12/15 09:30:09;;;;;;;6.63;2.78;;;9.20;99.90;;;;;;5072799;28;20085;-64
2021/12/15 09:32:36;;;;;;;7.18;2.75;;;9.20;99.90;;;;;;5074223;28;20024;-64
2021/12/15 09:35:03;;;;;;;7.35;2.03;;;9.20;99.90;;;;;;5069269;28;20024;-64
2021/12/15 09:37:28;;;;;;;5.93;2.50;;;9.20;99.90;;;;;;5073021;28;20036;-64
2021/12/15 09:39:55;;;;;;;8.00;3.05;;;9.10;99.90;;;;;;5070226;28;20100;-64
2021/12/15 09:42:27;;;;;;;11.02;2.78;;;9.20;99.90;;;;;;5068073;28;20370;-64
2021/12/15 09:44:59;;;;;;;9.27;2.95;;;9.10;99.90;;;;;;5070388;28;20099;-64
2021/12/15 10:04:06;;;;;;;7.10;2.97;;;9.30;99.90;;;;;;5070714;28;20081;-65
2021/12/15 10:06:52;;;;;;;10.10;3.90;;;9.40;99.90;;;;;;5074415;28;20332;-65
2021/12/15 10:17:42;;;;;;;15.93;4.40;;;9.40;99.90;;;;;;5074093;28;20032;-64
2021/12/15 10:20:20;;;;;;;10.93;4.53;;;9.40;99.90;;;;;;5069544;28;20028;-64
2021/12/15 10:22:51;;;;;;;10.68;4.13;;;9.40;99.90;;;;;;5078236;28;20429;-64
2021/12/15 10:25:43;;;;;;;11.25;4.25;;;9.30;99.90;;;;;;5066189;28;20016;-64
2021/12/15 10:28:10;;;;;;;10.32;3.22;;;9.40;99.90;;;;;;5067409;28;20107;-64
2021/12/15 10:30:38;;;;;;;8.30;3.35;;;9.40;99.90;;;;;;5066238;28;20033;-65
2021/12/15 10:33:12;;;;;;;9.55;4.38;;;9.50;99.90;;;;;;5079055;28;20112;-65
2021/12/15 10:35:44;;;;;;;9.85;3.70;;;9.50;99.90;;;;;;5069741;28;20042;-64
2021/12/15 10:38:28;;;;;;;13.10;4.75;;;9.50;99.90;;;;;;5072320;28;20027;-64
2021/12/15 10:41:03;;;;;;;13.30;4.47;;;9.60;99.90;;;;;;5069189;28;20017;-65
2021/12/15 10:43:52;;;;;;;12.90;4.30;;;9.60;99.90;;;;;;5069617;28;20028;-65
2021/12/15 10:46:25;;;;;;;11.38;4.30;;;9.60;99.90;;;;;;5065577;28;20142;-65
2021/12/15 10:49:07;;;;;;;13.32;4.25;;;9.60;99.90;;;;;;5072238;28;20029;-64
2021/12/15 10:51:54;;;;;;;9.95;4.07;;;9.60;99.90;;;;;;5068787;28;20473;-65
2021/12/15 10:54:29;;;;;;;12.13;3.80;;;9.60;99.90;;;;;;5070937;28;20175;-65
2021/12/15 10:57:05;;;;;;;13.05;4.03;;;9.60;99.90;;;;;;5072329;28;20028;-65
2021/12/15 10:59:35;;;;;;;9.50;3.58;;;9.60;99.90;;;;;;5078942;28;20020;-65
2021/12/15 11:02:07;;;;;;;16.50;3.88;;;9.70;99.90;;;;;;5072510;28;20082;-65
2021/12/15 11:04:36;;;;;;;11.00;4.22;;;9.60;99.90;;;;;;5070452;28;20023;-65
2021/12/15 11:07:19;;;;;;;13.00;4.05;;;9.70;99.90;;;;;;5063823;28;20449;-65
2021/12/15 11:09:55;;;;;;;13.63;5.13;;;9.60;99.90;;;;;;5076319;28;20081;-65
2021/12/15 11:12:27;;;;;;;9.27;3.83;;;9.60;99.90;;;;;;5074437;28;20137;-65
2021/12/15 11:14:59;;;;;;;13.10;4.28;;;9.60;99.90;;;;;;5069756;28;20035;-65
2021/12/15 11:17:28;;;;;;;12.85;4.75;;;9.70;99.90;;;;;;5069354;28;20080;-64
2021/12/15 11:20:00;;;;;;;17.42;5.57;;;9.70;99.90;;;;;;5077147;28;20052;-64
2021/12/15 11:22:31;;;;;;;15.73;5.47;;;9.60;99.90;;;;;;5072864;28;20043;-65
2021/12/15 11:24:57;;;;;;;15.30;4.82;;;9.70;99.90;;;;;;5068346;28;20020;-65
2021/12/15 11:27:23;;;;;;;13.23;5.72;;;9.70;99.90;;;;;;5074527;28;20125;-64
2021/12/15 11:29:49;;;;;;;11.88;4.10;;;9.70;99.90;;;;;;5075926;28;20024;-64
2021/12/15 11:32:38;;;;;;;16.67;4.40;;;9.70;99.90;;;;;;5072286;28;20026;-64
2021/12/15 11:35:08;;;;;;;16.98;5.47;;;9.60;99.90;;;;;;5067657;28;20028;-65
2021/12/15 11:37:45;;;;;;;;;;;9.60;99.90;;;;;;5076660;28;20475;-64
2021/12/15 11:40:11;;;;;;;14.05;5.03;;;9.70;99.90;;;;;;5080324;28;19919;-64
2021/12/15 11:42:39;;;;;;;11.73;5.18;;;9.60;99.90;;;;;;5072076;28;20031;-65
2021/12/15 11:45:10;;;;;;;13.02;5.32;;;9.60;99.90;;;;;;5075800;28;20032;-65
2021/12/15 11:47:37;;;;;;;15.38;5.13;;;9.60;99.90;;;;;;5076648;28;20389;-65
2021/12/15 11:50:21;;;;;;;14.63;5.32;;;9.70;99.90;;;;;;5070421;28;20020;-65
2021/12/15 11:52:50;;;;;;;12.23;3.80;;;9.70;99.90;;;;;;5072014;28;20063;-65
2021/12/15 11:55:28;;;;;;;12.30;4.85;;;9.70;99.90;;;;;;5074487;28;20036;-65
2021/12/15 11:57:56;;;;;;;16.33;5.28;;;9.70;99.90;;;;;;5071677;28;20064;-64
2021/12/15 12:00:27;;;;;;;15.18;5.00;;;9.70;99.90;;;;;;5079289;28;20039;-64
2021/12/15 12:02:55;;;;;;;13.48;4.07;;;9.60;99.90;;;;;;5083805;28;20039;-65
2021/12/15 12:05:35;;;;;;;11.93;4.72;;;9.60;99.90;;;;;;5076024;28;20021;-64
2021/12/15 12:08:06;;;;;;;10.20;3.65;;;9.60;99.90;;;;;;5073868;28;20034;-65
2021/12/15 12:11:14;;;;;;;15.20;4.93;;;9.60;99.90;;;;;;5072864;28;20021;-65
2021/12/15 12:13:42;;;;;;;13.95;5.20;;;9.60;99.90;;;;;;5075048;28;20512;-65
2021/12/15 12:16:08;;;;;;;14.70;5.78;;;9.60;99.90;;;;;;5076555;28;20024;-65
2021/12/15 12:18:34;;;;;;;19.02;5.15;;;9.60;99.90;;;;;;5076624;28;20402;-65
2021/12/15 12:21:06;;;;;;;12.88;4.63;;;9.60;99.90;;;;;;5069125;28;20021;-65
2021/12/15 12:23:35;;;;;;;16.63;4.82;;;9.60;99.90;;;;;;5071821;28;20024;-65
2021/12/15 12:26:04;;;;;;;14.77;5.75;;;9.70;99.90;;;;;;5082012;28;20101;-65
2021/12/15 12:28:36;;;;;;;15.70;4.82;;;9.70;99.90;;;;;;5075307;28;20024;-65
2021/12/15 12:31:05;;;;;;;17.95;4.75;;;9.70;99.90;;;;;;5071408;28;20103;-65
2021/12/15 12:33:31;;;;;;;14.93;5.67;;;9.70;99.90;;;;;;5078862;28;20039;-65
2021/12/15 12:36:11;;;;;;;15.95;4.82;;;9.70;99.90;;;;;;5074532;28;20024;-65
2021/12/15 12:38:40;;;;;;;17.67;6.28;;;9.70;99.90;;;;;;5078347;28;20653;-65
2021/12/15 12:41:15;;;;;;;8.38;3.95;;;9.70;99.90;;;;;;5074795;28;20182;-64
2021/12/15 12:43:54;;;;;;;9.43;3.88;;;9.70;99.90;;;;;;5077156;28;20024;-65
2021/12/15 12:46:40;;;;;;;10.55;3.90;;;9.70;99.90;;;;;;5078425;28;20126;-65
2021/12/15 12:49:35;;;;;;;14.43;5.43;;;9.60;99.90;;;;;;5077178;28;20562;-64
2021/12/15 13:00:27;;;;;;;14.25;5.40;;;9.70;99.90;;;;;;5072687;28;20064;-65
2021/12/15 13:03:05;;;;;;;11.68;3.58;;;9.80;99.90;;;;;;5071682;28;20012;-65
2021/12/15 13:05:43;;;;;;;15.63;4.25;;;9.70;99.90;;;;;;5076053;28;20017;-65
2021/12/15 13:08:15;;;;;;;15.27;4.70;;;9.70;99.90;;;;;;5068852;28;20021;-66
2021/12/15 13:10:49;;;;;;;13.55;5.40;;;9.80;99.90;;;;;;5079170;28;20382;-65
2021/12/15 13:13:18;;;;;;;7.45;3.35;;;9.70;99.90;;;;;;5075477;28;20106;-65
2021/12/15 13:15:52;;;;;;;16.45;5.80;;;9.70;99.90;;;;;;5073959;28;20105;-65
2021/12/15 13:18:18;;;;;;;8.65;3.78;;;9.70;99.90;;;;;;5071548;28;20066;-65
2021/12/15 13:20:54;;;;;;;14.60;5.05;;;9.70;99.90;;;;;;5073054;28;20020;-65
2021/12/15 13:23:41;;;;;;;9.13;4.05;;;9.60;99.90;;;;;;5072993;28;20020;-65
2021/12/15 13:28:53;;;;;;;13.85;6.57;;;9.70;99.90;;;;;;5074252;28;20101;-64
2021/12/15 13:31:29;;;;;;;21.20;5.05;;;9.70;99.90;;;;;;5069208;28;20017;-65
2021/12/15 13:33:58;;;;;;;12.82;5.03;;;9.70;99.90;;;;;;5071255;28;20081;-65
2021/12/15 13:36:30;;;;;;;16.70;5.22;;;9.70;99.90;;;;;;5069388;28;20033;-65
2021/12/15 13:39:04;;;;;;;17.70;4.68;;;9.70;99.90;;;;;;5071194;28;20028;-64
2021/12/15 13:44:37;;;;;;;17.20;5.85;;;9.80;99.90;;;;;;5080931;28;20508;-64
2021/12/15 13:47:09;;;;;;;14.18;4.60;;;9.70;99.90;;;;;;5066830;28;20024;-65
2021/12/15 13:49:52;;;;;;;14.10;6.20;;;9.70;99.90;;;;;;5074876;28;20032;-64
2021/12/15 13:52:40;;;;;;;14.82;6.20;;;9.70;99.90;;;;;;5077326;28;20019;-64
2021/12/15 13:55:19;;;;;;;13.48;4.43;;;9.60;99.90;;;;;;5068960;28;20025;-65
2021/12/15 13:57:44;;;;;;;19.40;7.25;;;9.60;99.90;;;;;;5073826;28;20012;-64
2021/12/15 14:00:25;;;;;;;24.63;6.25;;;9.60;99.90;;;;;;5068093;28;20070;-65
2021/12/15 14:03:12;;;;;;;18.65;6.32;;;9.70;99.90;;;;;;5069312;28;20377;-64
2021/12/15 14:05:51;;;;;;;20.63;6.25;;;9.70;99.90;;;;;;5066446;28;20056;-65
2021/12/15 14:08:37;;;;;;;17.08;5.80;;;9.60;99.90;;;;;;5080395;28;20073;-64
2021/12/15 14:11:16;;;;;;;14.63;4.90;;;9.60;99.90;;;;;;5077114;28;20043;-64
2021/12/15 14:13:54;;;;;;;16.73;5.35;;;9.60;99.90;;;;;;5070320;28;20484;-64
2021/12/15 14:16:38;;;;;;;16.10;6.13;;;9.70;99.90;;;;;;5067728;28;20017;-65
2021/12/15 14:19:10;;;;;;;19.95;6.72;;;9.70;99.90;;;;;;5068977;28;20049;-65
2021/12/15 14:21:38;;;;;;;13.75;6.38;;;9.70;99.90;;;;;;5065349;28;20036;-65
2021/12/15 14:24:04;;;;;;;26.02;7.22;;;9.70;99.90;;;;;;5065440;28;20032;-65
2021/12/15 14:26:33;;;;;;;16.00;6.15;;;9.70;99.90;;;;;;5069966;28;20074;-65
2021/12/15 14:29:04;;;;;;;15.45;5.97;;;9.60;99.90;;;;;;5072505;28;20035;-65